sensor_id;sensor_type;location;lat;lon;timestamp;P1;durP1;ratioP1;P2;durP2;ratioP2
8895;SDS011;4484;48.928;10.066;2024-02-21T00:00:38;8.10;;;2.97;;
8895;SDS011;4484;48.928;10.066;2024-02-21T00:03:06;15.53;;;3.13;;
8895;SDS011;4484;48.928;10.066;2024-02-21T00:05:33;8.47;;;3.10;;
8895;SDS011;4484;48.928;10.066;2024-02-21T00:08:01;13.37;;;3.40;;
8895;SDS011;4484;48.928;10.066;2024-02-21T00:10:29;7.10;;;3.47;;
8895;SDS011;4484;48.928;10.066;2024-02-21T00:12:58;9.80;;;2.97;;
8895;SDS011;4484;48.928;10.066;2024-02-21T00:15:26;9.63;;;2.60;;
8895;SDS011;4484;48.928;10.066;2024-02-21T00:17:53;7.97;;;3.00;;
8895;SDS011;4484;48.928;10.066;2024-02-21T00:20:20;6.10;;;2.83;;
8895;SDS011;4484;48.928;10.066;2024-02-21T00:22:47;9.33;;;3.50;;
8895;SDS011;4484;48.928;10.066;2024-02-21T00:25:13;8.17;;;3.27;;
8895;SDS011;4484;48.928;10.066;2024-02-21T00:27:40;9.80;;;3.53;;
8895;SDS011;4484;48.928;10.066;2024-02-21T00:30:07;10.17;;;3.60;;
8895;SDS011;4484;48.928;10.066;2024-02-21T00:32:35;11.37;;;3.40;;
8895;SDS011;4484;48.928;10.066;2024-02-21T00:35:02;7.77;;;3.43;;
8895;SDS011;4484;48.928;10.066;2024-02-21T00:37:29;9.13;;;3.07;;
8895;SDS011;4484;48.928;10.066;2024-02-21T00:39:57;10.23;;;3.07;;
8895;SDS011;4484;48.928;10.066;2024-02-21T00:42:24;9.13;;;3.97;;
8895;SDS011;4484;48.928;10.066;2024-02-21T00:44:50;8.77;;;2.80;;
8895;SDS011;4484;48.928;10.066;2024-02-21T00:47:17;6.70;;;3.33;;
8895;SDS011;4484;48.928;10.066;2024-02-21T00:49:44;8.97;;;3.07;;
8895;SDS011;4484;48.928;10.066;2024-02-21T00:52:11;12.70;;;4.10;;
8895;SDS011;4484;48.928;10.066;2024-02-21T00:54:38;14.67;;;3.10;;
8895;SDS011;4484;48.928;10.066;2024-02-21T00:57:18;9.23;;;3.33;;
8895;SDS011;4484;48.928;10.066;2024-02-21T00:59:45;5.37;;;3.13;;
8895;SDS011;4484;48.928;10.066;2024-02-21T01:02:12;12.17;;;3.23;;
8895;SDS011;4484;48.928;10.066;2024-02-21T01:04:39;9.63;;;3.90;;
8895;SDS011;4484;48.928;10.066;2024-02-21T01:07:06;10.07;;;3.27;;
8895;SDS011;4484;48.928;10.066;2024-02-21T01:09:33;8.17;;;3.20;;
8895;SDS011;4484;48.928;10.066;2024-02-21T01:12:00;11.77;;;3.00;;
8895;SDS011;4484;48.928;10.066;2024-02-21T01:14:26;11.23;;;3.47;;
8895;SDS011;4484;48.928;10.066;2024-02-21T01:16:54;10.97;;;4.00;;
8895;SDS011;4484;48.928;10.066;2024-02-21T01:19:21;9.27;;;3.47;;
8895;SDS011;4484;48.928;10.066;2024-02-21T01:21:48;11.43;;;4.13;;
8895;SDS011;4484;48.928;10.066;2024-02-21T01:24:15;12.43;;;3.30;;
8895;SDS011;4484;48.928;10.066;2024-02-21T01:26:42;9.70;;;3.33;;
8895;SDS011;4484;48.928;10.066;2024-02-21T01:29:08;12.47;;;3.13;;
8895;SDS011;4484;48.928;10.066;2024-02-21T01:31:35;8.83;;;3.03;;
8895;SDS011;4484;48.928;10.066;2024-02-21T01:34:02;6.60;;;3.13;;
8895;SDS011;4484;48.928;10.066;2024-02-21T01:36:29;11.13;;;3.00;;
8895;SDS011;4484;48.928;10.066;2024-02-21T01:38:56;9.43;;;2.90;;
8895;SDS011;4484;48.928;10.066;2024-02-21T01:41:23;9.77;;;2.50;;
8895;SDS011;4484;48.928;10.066;2024-02-21T01:43:49;12.47;;;3.57;;
8895;SDS011;4484;48.928;10.066;2024-02-21T01:46:16;14.63;;;3.33;;
8895;SDS011;4484;48.928;10.066;2024-02-21T01:48:44;7.03;;;2.77;;
8895;SDS011;4484;48.928;10.066;2024-02-21T01:51:12;11.07;;;3.00;;
8895;SDS011;4484;48.928;10.066;2024-02-21T01:53:42;8.50;;;2.80;;
8895;SDS011;4484;48.928;10.066;2024-02-21T01:56:09;12.63;;;2.90;;
8895;SDS011;4484;48.928;10.066;2024-02-21T01:58:39;7.73;;;3.03;;
8895;SDS011;4484;48.928;10.066;2024-02-21T02:01:07;9.40;;;2.70;;
8895;SDS011;4484;48.928;10.066;2024-02-21T02:03:35;7.17;;;2.80;;
8895;SDS011;4484;48.928;10.066;2024-02-21T02:06:04;9.03;;;2.83;;
8895;SDS011;4484;48.928;10.066;2024-02-21T02:08:33;8.00;;;2.80;;
8895;SDS011;4484;48.928;10.066;2024-02-21T02:11:00;7.40;;;2.47;;
8895;SDS011;4484;48.928;10.066;2024-02-21T02:13:27;9.90;;;2.90;;
8895;SDS011;4484;48.928;10.066;2024-02-21T02:15:55;7.50;;;3.07;;
8895;SDS011;4484;48.928;10.066;2024-02-21T02:18:22;10.57;;;2.97;;
8895;SDS011;4484;48.928;10.066;2024-02-21T02:20:49;11.00;;;2.73;;
8895;SDS011;4484;48.928;10.066;2024-02-21T02:25:49;7.90;;;2.67;;
8895;SDS011;4484;48.928;10.066;2024-02-21T02:28:20;9.57;;;3.07;;
8895;SDS011;4484;48.928;10.066;2024-02-21T02:30:48;6.33;;;2.63;;
8895;SDS011;4484;48.928;10.066;2024-02-21T02:33:15;10.30;;;3.27;;
8895;SDS011;4484;48.928;10.066;2024-02-21T02:35:46;8.57;;;2.50;;
8895;SDS011;4484;48.928;10.066;2024-02-21T02:38:13;9.57;;;2.77;;
8895;SDS011;4484;48.928;10.066;2024-02-21T02:40:41;11.70;;;2.93;;
8895;SDS011;4484;48.928;10.066;2024-02-21T02:43:08;8.87;;;2.90;;
8895;SDS011;4484;48.928;10.066;2024-02-21T02:45:35;6.30;;;2.33;;
8895;SDS011;4484;48.928;10.066;2024-02-21T02:48:02;4.83;;;2.23;;
8895;SDS011;4484;48.928;10.066;2024-02-21T02:50:30;8.93;;;2.50;;
8895;SDS011;4484;48.928;10.066;2024-02-21T02:52:57;9.00;;;2.93;;
8895;SDS011;4484;48.928;10.066;2024-02-21T02:55:24;7.37;;;2.50;;
8895;SDS011;4484;48.928;10.066;2024-02-21T02:57:53;6.87;;;3.00;;
8895;SDS011;4484;48.928;10.066;2024-02-21T03:00:20;8.50;;;3.00;;
8895;SDS011;4484;48.928;10.066;2024-02-21T03:02:48;7.70;;;2.60;;
8895;SDS011;4484;48.928;10.066;2024-02-21T03:05:16;6.87;;;2.67;;
8895;SDS011;4484;48.928;10.066;2024-02-21T03:07:45;9.50;;;2.97;;
8895;SDS011;4484;48.928;10.066;2024-02-21T03:10:13;12.00;;;2.57;;
8895;SDS011;4484;48.928;10.066;2024-02-21T03:12:43;9.50;;;3.03;;
8895;SDS011;4484;48.928;10.066;2024-02-21T03:15:10;8.20;;;2.47;;
8895;SDS011;4484;48.928;10.066;2024-02-21T03:17:37;10.30;;;3.20;;
8895;SDS011;4484;48.928;10.066;2024-02-21T03:20:04;9.13;;;2.87;;
8895;SDS011;4484;48.928;10.066;2024-02-21T03:22:32;10.47;;;3.50;;
8895;SDS011;4484;48.928;10.066;2024-02-21T03:24:59;12.17;;;3.10;;
8895;SDS011;4484;48.928;10.066;2024-02-21T03:27:26;4.43;;;2.73;;
8895;SDS011;4484;48.928;10.066;2024-02-21T03:29:53;8.50;;;2.87;;
8895;SDS011;4484;48.928;10.066;2024-02-21T03:32:20;11.27;;;3.00;;
8895;SDS011;4484;48.928;10.066;2024-02-21T03:34:47;7.70;;;2.83;;
8895;SDS011;4484;48.928;10.066;2024-02-21T03:37:14;9.23;;;3.20;;
8895;SDS011;4484;48.928;10.066;2024-02-21T03:39:41;8.80;;;3.00;;
8895;SDS011;4484;48.928;10.066;2024-02-21T03:42:08;7.87;;;2.60;;
8895;SDS011;4484;48.928;10.066;2024-02-21T03:44:35;10.30;;;2.97;;
8895;SDS011;4484;48.928;10.066;2024-02-21T03:47:02;8.97;;;3.03;;
8895;SDS011;4484;48.928;10.066;2024-02-21T03:49:29;11.47;;;3.20;;
8895;SDS011;4484;48.928;10.066;2024-02-21T03:51:56;10.17;;;2.80;;
8895;SDS011;4484;48.928;10.066;2024-02-21T03:54:23;5.67;;;2.70;;
8895;SDS011;4484;48.928;10.066;2024-02-21T03:56:50;5.83;;;2.43;;
8895;SDS011;4484;48.928;10.066;2024-02-21T03:59:17;6.47;;;2.57;;
8895;SDS011;4484;48.928;10.066;2024-02-21T04:01:44;5.97;;;2.13;;
8895;SDS011;4484;48.928;10.066;2024-02-21T04:04:11;7.07;;;2.43;;
8895;SDS011;4484;48.928;10.066;2024-02-21T04:06:48;6.23;;;2.40;;
8895;SDS011;4484;48.928;10.066;2024-02-21T04:09:15;10.20;;;2.80;;
8895;SDS011;4484;48.928;10.066;2024-02-21T04:11:42;9.63;;;2.93;;
8895;SDS011;4484;48.928;10.066;2024-02-21T04:14:09;8.53;;;2.57;;
8895;SDS011;4484;48.928;10.066;2024-02-21T04:16:37;10.17;;;3.03;;
8895;SDS011;4484;48.928;10.066;2024-02-21T04:19:05;7.47;;;2.53;;
8895;SDS011;4484;48.928;10.066;2024-02-21T04:21:32;6.43;;;2.73;;
8895;SDS011;4484;48.928;10.066;2024-02-21T04:23:59;8.77;;;2.47;;
8895;SDS011;4484;48.928;10.066;2024-02-21T04:26:28;5.97;;;2.43;;
8895;SDS011;4484;48.928;10.066;2024-02-21T04:28:55;6.70;;;2.43;;
8895;SDS011;4484;48.928;10.066;2024-02-21T04:31:22;3.90;;;2.20;;
8895;SDS011;4484;48.928;10.066;2024-02-21T04:33:49;7.87;;;2.40;;
8895;SDS011;4484;48.928;10.066;2024-02-21T04:36:16;6.00;;;2.23;;
8895;SDS011;4484;48.928;10.066;2024-02-21T04:38:42;4.43;;;2.10;;
8895;SDS011;4484;48.928;10.066;2024-02-21T04:41:09;8.87;;;2.33;;
8895;SDS011;4484;48.928;10.066;2024-02-21T04:43:36;8.20;;;2.60;;
8895;SDS011;4484;48.928;10.066;2024-02-21T04:46:04;6.33;;;2.47;;
8895;SDS011;4484;48.928;10.066;2024-02-21T04:48:31;10.70;;;2.73;;
8895;SDS011;4484;48.928;10.066;2024-02-21T04:50:57;7.97;;;2.80;;
8895;SDS011;4484;48.928;10.066;2024-02-21T04:53:24;10.07;;;3.00;;
8895;SDS011;4484;48.928;10.066;2024-02-21T04:55:51;14.93;;;4.97;;
8895;SDS011;4484;48.928;10.066;2024-02-21T04:58:18;20.67;;;4.97;;
8895;SDS011;4484;48.928;10.066;2024-02-21T05:00:45;8.83;;;3.87;;
8895;SDS011;4484;48.928;10.066;2024-02-21T05:03:12;7.33;;;2.67;;
8895;SDS011;4484;48.928;10.066;2024-02-21T05:05:39;12.33;;;3.47;;
8895;SDS011;4484;48.928;10.066;2024-02-21T05:08:06;5.43;;;2.10;;
8895;SDS011;4484;48.928;10.066;2024-02-21T05:10:33;6.47;;;2.37;;
8895;SDS011;4484;48.928;10.066;2024-02-21T05:13:00;3.77;;;2.60;;
8895;SDS011;4484;48.928;10.066;2024-02-21T05:15:27;3.57;;;1.70;;
8895;SDS011;4484;48.928;10.066;2024-02-21T05:17:54;3.70;;;1.80;;
8895;SDS011;4484;48.928;10.066;2024-02-21T05:20:21;3.03;;;1.80;;
8895;SDS011;4484;48.928;10.066;2024-02-21T05:22:48;3.57;;;1.80;;
8895;SDS011;4484;48.928;10.066;2024-02-21T05:25:15;2.10;;;1.50;;
8895;SDS011;4484;48.928;10.066;2024-02-21T05:27:41;4.17;;;1.60;;
8895;SDS011;4484;48.928;10.066;2024-02-21T05:30:08;9.33;;;2.97;;
8895;SDS011;4484;48.928;10.066;2024-02-21T05:32:36;7.97;;;2.67;;
8895;SDS011;4484;48.928;10.066;2024-02-21T05:35:03;5.93;;;3.13;;
8895;SDS011;4484;48.928;10.066;2024-02-21T05:37:30;9.40;;;3.57;;
8895;SDS011;4484;48.928;10.066;2024-02-21T05:39:57;9.63;;;5.40;;
8895;SDS011;4484;48.928;10.066;2024-02-21T05:42:24;18.80;;;5.57;;
8895;SDS011;4484;48.928;10.066;2024-02-21T05:44:51;9.43;;;4.20;;
8895;SDS011;4484;48.928;10.066;2024-02-21T05:47:17;10.47;;;3.73;;
8895;SDS011;4484;48.928;10.066;2024-02-21T05:49:46;9.77;;;3.63;;
8895;SDS011;4484;48.928;10.066;2024-02-21T05:52:14;10.67;;;4.10;;
8895;SDS011;4484;48.928;10.066;2024-02-21T05:54:41;8.43;;;2.70;;
8895;SDS011;4484;48.928;10.066;2024-02-21T05:57:08;9.83;;;3.37;;
8895;SDS011;4484;48.928;10.066;2024-02-21T05:59:35;8.30;;;3.07;;
8895;SDS011;4484;48.928;10.066;2024-02-21T06:02:06;11.00;;;2.87;;
8895;SDS011;4484;48.928;10.066;2024-02-21T06:04:33;7.63;;;3.00;;
8895;SDS011;4484;48.928;10.066;2024-02-21T06:07:00;7.77;;;3.10;;
8895;SDS011;4484;48.928;10.066;2024-02-21T06:09:28;8.47;;;3.80;;
8895;SDS011;4484;48.928;10.066;2024-02-21T06:11:55;12.27;;;4.40;;
8895;SDS011;4484;48.928;10.066;2024-02-21T06:14:22;8.80;;;3.97;;
8895;SDS011;4484;48.928;10.066;2024-02-21T06:16:49;10.63;;;3.43;;
8895;SDS011;4484;48.928;10.066;2024-02-21T06:19:16;7.33;;;3.20;;
8895;SDS011;4484;48.928;10.066;2024-02-21T06:21:43;12.93;;;4.77;;
8895;SDS011;4484;48.928;10.066;2024-02-21T06:24:10;14.97;;;5.90;;
8895;SDS011;4484;48.928;10.066;2024-02-21T06:26:39;10.13;;;4.70;;
8895;SDS011;4484;48.928;10.066;2024-02-21T06:29:06;8.70;;;3.77;;
8895;SDS011;4484;48.928;10.066;2024-02-21T06:31:34;8.10;;;4.17;;
8895;SDS011;4484;48.928;10.066;2024-02-21T06:34:02;8.03;;;4.00;;
8895;SDS011;4484;48.928;10.066;2024-02-21T06:36:29;12.43;;;3.70;;
8895;SDS011;4484;48.928;10.066;2024-02-21T06:38:56;7.90;;;3.30;;
8895;SDS011;4484;48.928;10.066;2024-02-21T06:41:23;16.03;;;4.60;;
8895;SDS011;4484;48.928;10.066;2024-02-21T06:43:51;6.80;;;4.17;;
8895;SDS011;4484;48.928;10.066;2024-02-21T06:46:24;9.90;;;5.00;;
8895;SDS011;4484;48.928;10.066;2024-02-21T06:49:00;5.53;;;4.13;;
8895;SDS011;4484;48.928;10.066;2024-02-21T06:51:29;8.30;;;4.00;;
8895;SDS011;4484;48.928;10.066;2024-02-21T06:53:57;6.93;;;4.47;;
8895;SDS011;4484;48.928;10.066;2024-02-21T06:56:24;8.43;;;3.83;;
8895;SDS011;4484;48.928;10.066;2024-02-21T06:58:55;11.70;;;3.97;;
8895;SDS011;4484;48.928;10.066;2024-02-21T07:01:23;8.33;;;3.13;;
8895;SDS011;4484;48.928;10.066;2024-02-21T07:03:51;10.53;;;3.77;;
8895;SDS011;4484;48.928;10.066;2024-02-21T07:06:18;10.50;;;4.67;;
8895;SDS011;4484;48.928;10.066;2024-02-21T07:08:45;9.60;;;3.93;;
8895;SDS011;4484;48.928;10.066;2024-02-21T07:11:11;9.83;;;3.77;;
8895;SDS011;4484;48.928;10.066;2024-02-21T07:13:39;11.73;;;3.70;;
8895;SDS011;4484;48.928;10.066;2024-02-21T07:16:06;8.70;;;5.10;;
8895;SDS011;4484;48.928;10.066;2024-02-21T07:18:33;8.57;;;3.90;;
8895;SDS011;4484;48.928;10.066;2024-02-21T07:21:00;12.47;;;5.40;;
8895;SDS011;4484;48.928;10.066;2024-02-21T07:23:27;14.87;;;6.87;;
8895;SDS011;4484;48.928;10.066;2024-02-21T07:25:54;9.20;;;4.83;;
8895;SDS011;4484;48.928;10.066;2024-02-21T07:28:21;10.57;;;5.13;;
8895;SDS011;4484;48.928;10.066;2024-02-21T07:30:48;5.63;;;3.83;;
8895;SDS011;4484;48.928;10.066;2024-02-21T07:33:15;11.33;;;3.33;;
8895;SDS011;4484;48.928;10.066;2024-02-21T07:35:42;7.37;;;3.57;;
8895;SDS011;4484;48.928;10.066;2024-02-21T07:38:11;10.20;;;2.70;;
8895;SDS011;4484;48.928;10.066;2024-02-21T07:40:39;7.87;;;3.30;;
8895;SDS011;4484;48.928;10.066;2024-02-21T07:43:06;12.27;;;3.10;;
8895;SDS011;4484;48.928;10.066;2024-02-21T07:45:33;9.90;;;3.53;;
8895;SDS011;4484;48.928;10.066;2024-02-21T07:48:00;9.97;;;3.27;;
8895;SDS011;4484;48.928;10.066;2024-02-21T07:50:27;6.07;;;2.60;;
8895;SDS011;4484;48.928;10.066;2024-02-21T07:52:54;9.90;;;2.80;;
8895;SDS011;4484;48.928;10.066;2024-02-21T07:55:21;10.07;;;3.33;;
8895;SDS011;4484;48.928;10.066;2024-02-21T07:57:48;4.33;;;2.37;;
8895;SDS011;4484;48.928;10.066;2024-02-21T08:00:16;7.37;;;2.50;;
8895;SDS011;4484;48.928;10.066;2024-02-21T08:02:47;8.70;;;2.70;;
8895;SDS011;4484;48.928;10.066;2024-02-21T08:05:15;6.83;;;2.37;;
8895;SDS011;4484;48.928;10.066;2024-02-21T08:07:42;11.33;;;2.93;;
8895;SDS011;4484;48.928;10.066;2024-02-21T08:10:09;6.27;;;2.73;;
8895;SDS011;4484;48.928;10.066;2024-02-21T08:12:36;7.13;;;2.90;;
8895;SDS011;4484;48.928;10.066;2024-02-21T08:15:04;7.17;;;2.73;;
8895;SDS011;4484;48.928;10.066;2024-02-21T08:17:31;14.43;;;3.00;;
8895;SDS011;4484;48.928;10.066;2024-02-21T08:19:57;7.03;;;2.57;;
8895;SDS011;4484;48.928;10.066;2024-02-21T08:22:25;4.47;;;2.13;;
8895;SDS011;4484;48.928;10.066;2024-02-21T08:24:53;7.20;;;2.43;;
8895;SDS011;4484;48.928;10.066;2024-02-21T08:27:20;5.87;;;2.33;;
8895;SDS011;4484;48.928;10.066;2024-02-21T08:29:47;8.10;;;2.40;;
8895;SDS011;4484;48.928;10.066;2024-02-21T08:32:14;6.67;;;1.93;;
8895;SDS011;4484;48.928;10.066;2024-02-21T08:34:40;5.70;;;1.80;;
8895;SDS011;4484;48.928;10.066;2024-02-21T08:37:07;6.97;;;2.07;;
8895;SDS011;4484;48.928;10.066;2024-02-21T08:39:34;6.50;;;2.00;;
8895;SDS011;4484;48.928;10.066;2024-02-21T08:42:01;5.73;;;2.33;;
8895;SDS011;4484;48.928;10.066;2024-02-21T08:44:28;4.60;;;1.67;;
8895;SDS011;4484;48.928;10.066;2024-02-21T08:46:55;6.37;;;2.60;;
8895;SDS011;4484;48.928;10.066;2024-02-21T08:49:23;3.97;;;1.83;;
8895;SDS011;4484;48.928;10.066;2024-02-21T08:51:59;6.83;;;1.57;;
8895;SDS011;4484;48.928;10.066;2024-02-21T08:54:26;7.77;;;1.87;;
8895;SDS011;4484;48.928;10.066;2024-02-21T08:56:54;5.67;;;1.97;;
8895;SDS011;4484;48.928;10.066;2024-02-21T08:59:21;7.80;;;1.70;;
8895;SDS011;4484;48.928;10.066;2024-02-21T09:01:48;6.47;;;1.63;;
8895;SDS011;4484;48.928;10.066;2024-02-21T09:04:15;6.10;;;1.80;;
8895;SDS011;4484;48.928;10.066;2024-02-21T09:06:42;5.77;;;2.00;;
8895;SDS011;4484;48.928;10.066;2024-02-21T09:09:09;7.97;;;2.07;;
8895;SDS011;4484;48.928;10.066;2024-02-21T09:11:36;6.00;;;1.93;;
8895;SDS011;4484;48.928;10.066;2024-02-21T09:14:03;4.97;;;2.00;;
8895;SDS011;4484;48.928;10.066;2024-02-21T09:16:31;4.03;;;1.67;;
8895;SDS011;4484;48.928;10.066;2024-02-21T09:18:59;5.97;;;1.63;;
8895;SDS011;4484;48.928;10.066;2024-02-21T09:21:26;4.30;;;1.90;;
8895;SDS011;4484;48.928;10.066;2024-02-21T09:23:54;4.70;;;1.90;;
8895;SDS011;4484;48.928;10.066;2024-02-21T09:26:25;6.37;;;2.20;;
8895;SDS011;4484;48.928;10.066;2024-02-21T09:28:52;3.40;;;1.63;;
8895;SDS011;4484;48.928;10.066;2024-02-21T09:31:19;4.97;;;1.57;;
8895;SDS011;4484;48.928;10.066;2024-02-21T09:33:46;8.77;;;1.67;;
8895;SDS011;4484;48.928;10.066;2024-02-21T09:36:12;4.47;;;1.50;;
8895;SDS011;4484;48.928;10.066;2024-02-21T09:38:40;7.37;;;1.60;;
8895;SDS011;4484;48.928;10.066;2024-02-21T09:41:11;6.43;;;1.90;;
8895;SDS011;4484;48.928;10.066;2024-02-21T09:43:50;7.13;;;1.23;;
8895;SDS011;4484;48.928;10.066;2024-02-21T09:46:21;2.53;;;1.23;;
8895;SDS011;4484;48.928;10.066;2024-02-21T09:51:53;6.27;;;1.70;;
8895;SDS011;4484;48.928;10.066;2024-02-21T09:54:21;5.23;;;1.50;;
8895;SDS011;4484;48.928;10.066;2024-02-21T09:56:48;5.30;;;1.50;;
8895;SDS011;4484;48.928;10.066;2024-02-21T09:59:16;4.27;;;1.90;;
8895;SDS011;4484;48.928;10.066;2024-02-21T10:01:43;4.90;;;1.30;;
8895;SDS011;4484;48.928;10.066;2024-02-21T10:04:11;4.57;;;1.47;;
8895;SDS011;4484;48.928;10.066;2024-02-21T10:06:38;7.33;;;1.70;;
8895;SDS011;4484;48.928;10.066;2024-02-21T10:09:06;2.93;;;1.07;;
8895;SDS011;4484;48.928;10.066;2024-02-21T10:11:33;4.50;;;1.60;;
8895;SDS011;4484;48.928;10.066;2024-02-21T10:14:04;6.63;;;1.53;;
8895;SDS011;4484;48.928;10.066;2024-02-21T10:16:33;7.80;;;1.47;;
8895;SDS011;4484;48.928;10.066;2024-02-21T10:19:00;4.30;;;1.30;;
8895;SDS011;4484;48.928;10.066;2024-02-21T10:21:27;4.30;;;1.30;;
8895;SDS011;4484;48.928;10.066;2024-02-21T10:23:54;3.07;;;1.33;;
8895;SDS011;4484;48.928;10.066;2024-02-21T10:26:21;5.00;;;1.70;;
8895;SDS011;4484;48.928;10.066;2024-02-21T10:28:49;4.53;;;1.30;;
8895;SDS011;4484;48.928;10.066;2024-02-21T10:31:22;4.33;;;1.27;;
8895;SDS011;4484;48.928;10.066;2024-02-21T10:33:54;3.10;;;1.10;;
8895;SDS011;4484;48.928;10.066;2024-02-21T10:36:25;3.30;;;1.37;;
8895;SDS011;4484;48.928;10.066;2024-02-21T10:38:52;3.83;;;1.60;;
8895;SDS011;4484;48.928;10.066;2024-02-21T10:41:21;2.70;;;1.60;;
8895;SDS011;4484;48.928;10.066;2024-02-21T10:43:52;4.70;;;1.90;;
8895;SDS011;4484;48.928;10.066;2024-02-21T10:46:22;3.77;;;1.50;;
8895;SDS011;4484;48.928;10.066;2024-02-21T10:51:34;4.13;;;1.80;;
8895;SDS011;4484;48.928;10.066;2024-02-21T10:54:15;6.83;;;1.70;;
8895;SDS011;4484;48.928;10.066;2024-02-21T10:56:49;4.40;;;1.37;;
8895;SDS011;4484;48.928;10.066;2024-02-21T10:59:17;7.60;;;2.10;;
8895;SDS011;4484;48.928;10.066;2024-02-21T11:01:45;4.97;;;1.50;;
8895;SDS011;4484;48.928;10.066;2024-02-21T11:04:13;5.80;;;1.60;;
8895;SDS011;4484;48.928;10.066;2024-02-21T11:06:41;3.00;;;1.30;;
8895;SDS011;4484;48.928;10.066;2024-02-21T11:09:09;4.53;;;1.53;;
8895;SDS011;4484;48.928;10.066;2024-02-21T11:11:39;3.97;;;1.30;;
8895;SDS011;4484;48.928;10.066;2024-02-21T11:14:09;4.83;;;1.70;;
8895;SDS011;4484;48.928;10.066;2024-02-21T11:16:46;6.80;;;1.63;;
8895;SDS011;4484;48.928;10.066;2024-02-21T11:19:20;2.67;;;1.33;;
8895;SDS011;4484;48.928;10.066;2024-02-21T11:21:49;4.80;;;1.43;;
8895;SDS011;4484;48.928;10.066;2024-02-21T11:24:29;6.50;;;1.90;;
8895;SDS011;4484;48.928;10.066;2024-02-21T11:27:08;5.67;;;1.37;;
8895;SDS011;4484;48.928;10.066;2024-02-21T11:29:48;2.70;;;1.30;;
8895;SDS011;4484;48.928;10.066;2024-02-21T11:32:19;2.80;;;1.30;;
8895;SDS011;4484;48.928;10.066;2024-02-21T11:34:59;4.33;;;1.50;;
8895;SDS011;4484;48.928;10.066;2024-02-21T11:37:29;4.33;;;1.37;;
8895;SDS011;4484;48.928;10.066;2024-02-21T11:40:00;4.17;;;1.60;;
8895;SDS011;4484;48.928;10.066;2024-02-21T11:42:27;7.67;;;1.50;;
8895;SDS011;4484;48.928;10.066;2024-02-21T11:44:59;6.10;;;1.50;;
8895;SDS011;4484;48.928;10.066;2024-02-21T11:47:28;2.77;;;1.07;;
8895;SDS011;4484;48.928;10.066;2024-02-21T11:49:55;3.07;;;1.20;;
8895;SDS011;4484;48.928;10.066;2024-02-21T11:52:23;4.70;;;1.40;;
8895;SDS011;4484;48.928;10.066;2024-02-21T11:54:53;4.30;;;1.33;;
8895;SDS011;4484;48.928;10.066;2024-02-21T11:57:22;2.07;;;1.10;;
8895;SDS011;4484;48.928;10.066;2024-02-21T11:59:50;6.43;;;1.20;;
8895;SDS011;4484;48.928;10.066;2024-02-21T12:02:25;4.77;;;1.27;;
8895;SDS011;4484;48.928;10.066;2024-02-21T12:04:52;2.30;;;1.30;;
8895;SDS011;4484;48.928;10.066;2024-02-21T12:07:21;2.47;;;1.20;;
8895;SDS011;4484;48.928;10.066;2024-02-21T12:09:50;5.00;;;1.00;;
8895;SDS011;4484;48.928;10.066;2024-02-21T12:12:19;6.10;;;1.40;;
8895;SDS011;4484;48.928;10.066;2024-02-21T12:14:53;2.93;;;1.07;;
8895;SDS011;4484;48.928;10.066;2024-02-21T12:17:26;3.23;;;1.20;;
8895;SDS011;4484;48.928;10.066;2024-02-21T12:19:53;3.73;;;0.97;;
8895;SDS011;4484;48.928;10.066;2024-02-21T12:22:20;4.43;;;1.63;;
8895;SDS011;4484;48.928;10.066;2024-02-21T12:24:47;1.97;;;0.90;;
8895;SDS011;4484;48.928;10.066;2024-02-21T12:27:15;4.50;;;1.27;;
8895;SDS011;4484;48.928;10.066;2024-02-21T12:29:42;2.07;;;0.93;;
8895;SDS011;4484;48.928;10.066;2024-02-21T12:32:09;1.93;;;0.97;;
8895;SDS011;4484;48.928;10.066;2024-02-21T12:34:36;3.43;;;1.33;;
8895;SDS011;4484;48.928;10.066;2024-02-21T12:37:18;3.00;;;1.10;;
8895;SDS011;4484;48.928;10.066;2024-02-21T12:39:47;2.93;;;1.27;;
8895;SDS011;4484;48.928;10.066;2024-02-21T12:42:14;1.40;;;0.87;;
8895;SDS011;4484;48.928;10.066;2024-02-21T12:44:41;2.83;;;0.93;;
8895;SDS011;4484;48.928;10.066;2024-02-21T12:47:08;3.87;;;0.93;;
8895;SDS011;4484;48.928;10.066;2024-02-21T12:49:35;2.03;;;1.00;;
8895;SDS011;4484;48.928;10.066;2024-02-21T12:52:04;1.97;;;1.17;;
8895;SDS011;4484;48.928;10.066;2024-02-21T12:54:31;3.57;;;1.50;;
8895;SDS011;4484;48.928;10.066;2024-02-21T12:56:57;5.50;;;2.20;;
8895;SDS011;4484;48.928;10.066;2024-02-21T12:59:29;5.03;;;2.00;;
8895;SDS011;4484;48.928;10.066;2024-02-21T13:01:56;3.77;;;1.60;;
8895;SDS011;4484;48.928;10.066;2024-02-21T13:04:23;6.47;;;1.53;;
8895;SDS011;4484;48.928;10.066;2024-02-21T13:06:51;1.70;;;1.00;;
8895;SDS011;4484;48.928;10.066;2024-02-21T13:09:18;1.83;;;1.00;;
8895;SDS011;4484;48.928;10.066;2024-02-21T13:11:46;3.40;;;1.20;;
8895;SDS011;4484;48.928;10.066;2024-02-21T13:14:13;1.50;;;1.10;;
8895;SDS011;4484;48.928;10.066;2024-02-21T13:16:40;3.87;;;1.00;;
8895;SDS011;4484;48.928;10.066;2024-02-21T13:19:07;3.10;;;0.90;;
8895;SDS011;4484;48.928;10.066;2024-02-21T13:21:35;3.07;;;0.97;;
8895;SDS011;4484;48.928;10.066;2024-02-21T13:24:02;3.07;;;0.97;;
8895;SDS011;4484;48.928;10.066;2024-02-21T13:26:29;6.07;;;1.50;;
8895;SDS011;4484;48.928;10.066;2024-02-21T13:28:56;1.23;;;0.70;;
8895;SDS011;4484;48.928;10.066;2024-02-21T13:31:23;2.37;;;1.10;;
8895;SDS011;4484;48.928;10.066;2024-02-21T13:33:52;5.83;;;1.00;;
8895;SDS011;4484;48.928;10.066;2024-02-21T13:36:19;4.67;;;1.13;;
8895;SDS011;4484;48.928;10.066;2024-02-21T13:38:46;2.33;;;0.90;;
8895;SDS011;4484;48.928;10.066;2024-02-21T13:41:13;1.87;;;1.10;;
8895;SDS011;4484;48.928;10.066;2024-02-21T13:43:40;1.53;;;1.07;;
8895;SDS011;4484;48.928;10.066;2024-02-21T13:46:08;3.93;;;1.40;;
8895;SDS011;4484;48.928;10.066;2024-02-21T13:48:37;4.03;;;1.10;;
8895;SDS011;4484;48.928;10.066;2024-02-21T13:51:04;2.10;;;0.90;;
8895;SDS011;4484;48.928;10.066;2024-02-21T13:53:31;2.23;;;1.07;;
8895;SDS011;4484;48.928;10.066;2024-02-21T13:56:00;3.27;;;1.10;;
8895;SDS011;4484;48.928;10.066;2024-02-21T13:58:27;3.20;;;1.70;;
8895;SDS011;4484;48.928;10.066;2024-02-21T14:00:54;3.87;;;1.30;;
8895;SDS011;4484;48.928;10.066;2024-02-21T14:03:22;2.47;;;1.27;;
8895;SDS011;4484;48.928;10.066;2024-02-21T14:05:49;6.20;;;1.20;;
8895;SDS011;4484;48.928;10.066;2024-02-21T14:08:17;4.33;;;1.00;;
8895;SDS011;4484;48.928;10.066;2024-02-21T14:10:44;1.70;;;0.87;;
8895;SDS011;4484;48.928;10.066;2024-02-21T14:13:11;1.00;;;0.70;;
8895;SDS011;4484;48.928;10.066;2024-02-21T14:15:39;2.40;;;1.03;;
8895;SDS011;4484;48.928;10.066;2024-02-21T14:18:08;2.40;;;1.33;;
8895;SDS011;4484;48.928;10.066;2024-02-21T14:20:36;1.63;;;1.00;;
8895;SDS011;4484;48.928;10.066;2024-02-21T14:23:03;2.30;;;1.20;;
8895;SDS011;4484;48.928;10.066;2024-02-21T14:25:31;2.47;;;1.00;;
8895;SDS011;4484;48.928;10.066;2024-02-21T14:28:00;1.67;;;1.17;;
8895;SDS011;4484;48.928;10.066;2024-02-21T14:30:27;4.63;;;2.20;;
8895;SDS011;4484;48.928;10.066;2024-02-21T14:32:54;3.57;;;2.13;;
8895;SDS011;4484;48.928;10.066;2024-02-21T14:35:21;3.67;;;1.97;;
8895;SDS011;4484;48.928;10.066;2024-02-21T14:37:48;3.43;;;1.33;;
8895;SDS011;4484;48.928;10.066;2024-02-21T14:40:16;2.33;;;1.37;;
8895;SDS011;4484;48.928;10.066;2024-02-21T14:42:42;2.90;;;1.37;;
8895;SDS011;4484;48.928;10.066;2024-02-21T14:45:09;1.67;;;1.10;;
8895;SDS011;4484;48.928;10.066;2024-02-21T14:47:36;2.43;;;1.43;;
8895;SDS011;4484;48.928;10.066;2024-02-21T14:50:03;3.17;;;1.57;;
8895;SDS011;4484;48.928;10.066;2024-02-21T14:52:31;3.70;;;1.10;;
8895;SDS011;4484;48.928;10.066;2024-02-21T14:54:59;2.30;;;1.10;;
8895;SDS011;4484;48.928;10.066;2024-02-21T14:57:29;1.77;;;1.10;;
8895;SDS011;4484;48.928;10.066;2024-02-21T14:59:56;1.67;;;1.20;;
8895;SDS011;4484;48.928;10.066;2024-02-21T15:02:25;2.13;;;1.10;;
8895;SDS011;4484;48.928;10.066;2024-02-21T15:04:55;2.00;;;1.17;;
8895;SDS011;4484;48.928;10.066;2024-02-21T15:07:22;2.77;;;1.60;;
8895;SDS011;4484;48.928;10.066;2024-02-21T15:09:51;2.77;;;1.70;;